• Join FlightAware (Why Join?)
  • Login
  • US Flag 
04:48AM EDT


 

Airport Tracker/Info


-or-


 

Live Flight TrackerFlight Track Log ✈ EJA122 ✈ 22-Jun-2013 ✈ KVNY - KAPC

Flight Track Log - Related Links

Times and Time Zones

All times are in EDT time to prevent confusion due to time zone crossing. See the EJA122 flight status page for this flight to view local times or setup timezone preferences in your user account.

Time Position Orientation Groundspeed Altitude Reporting Facility
EDT Latitude Longitude Course Direction KTS MPH feet Rate Location/Type
09:39PM 34.1867 -118.4900 217° Southwest 156 180 1,600  Level Los Angeles Center
09:40PM 34.1478 -118.5250 217° Southwest 196 226 3,400 1,920 Climbing Los Angeles Center
09:41PM 34.1839 -118.5703 314° West 213 245 5,600 1,620 Climbing Los Angeles Center
09:42PM 34.2494 -118.6014 339° North 246 283 6,800 1,680 Climbing Los Angeles Center
09:43PM 34.3242 -118.6358 339° North 279 321 9,100 1,860 Climbing Los Angeles Center
09:44PM 34.4172 -118.6789 339° North 299 344 10,700 1,260 Climbing Los Angeles Center
09:46PM 34.5011 -118.7192 338° Northwest 323 372 11,700 1,020 Climbing Los Angeles Center
09:47PM 34.5922 -118.7644 338° Northwest 350 403 12,800 1,260 Climbing Los Angeles Center
09:48PM 34.6842 -118.8058 340° North 353 406 14,300 1,440 Climbing Los Angeles Center
09:49PM 34.7756 -118.8483 339° North 352 405 15,800 1,440 Climbing Los Angeles Center
09:50PM 34.8542 -118.9133 326° Northwest 346 398 17,300 1,260 Climbing Los Angeles Center
09:51PM 34.9292 -118.9858 322° Northwest 344 396 18,500 1,200 Climbing Los Angeles Center
09:52PM 35.0317 -119.0678 327° Northwest 367 422 19,800 1,140 Climbing Los Angeles Center
09:53PM 35.1272 -119.1167 337° Northwest 376 433 20,900 1,080 Climbing Los Angeles Center
09:54PM 35.2075 -119.1964 321° Northwest 380 437 22,100 1,020 Climbing Los Angeles Center
09:55PM 35.2886 -119.2783 320° Northwest 378 435 23,100 1,020 Climbing Los Angeles Center
09:56PM 35.3697 -119.3603 321° Northwest 380 437 24,200 1,020 Climbing Los Angeles Center
09:57PM 35.4494 -119.4431 320° Northwest 379 436 25,300 1,020 Climbing Los Angeles Center
09:58PM 35.5322 -119.5289 320° Northwest 386 444 26,400 1,140 Climbing Los Angeles Center
09:59PM 35.6325 -119.6325 320° Northwest 395 455 27,700 1,020 Climbing Los Angeles Center
10:00PM 35.7158 -119.7189 320° Northwest 394 453 28,600 780 Climbing Los Angeles Center
10:01PM 35.8014 -119.8094 319° Northwest 403 464 29,400 600 Climbing Los Angeles Center
10:02PM 35.8883 -119.9000 320° Northwest 410 472 29,900 240 Climbing Los Angeles Center
10:03PM 35.9778 -119.9939 320° Northwest 419 482 30,000  Climbing Los Angeles Center
10:04PM 36.0708 -120.0928 319° Northwest 432 497 30,000  Level Los Angeles Center
10:05PM 36.1794 -120.2081 319° Northwest 432 497 30,000  Level Los Angeles Center
10:06PM 36.3044 -120.3392 320° Northwest 429 494 30,000  Level Oakland Center
10:07PM 36.3911 -120.4328 319° Northwest 420 483 30,000  Level Oakland Center
10:08PM 36.4739 -120.5186 320° Northwest 395 455 30,000  Level Oakland Center
10:09PM 36.5567 -120.6075 319° Northwest 395 455 30,000  Level Oakland Center
10:10PM 36.6436 -120.6997 320° Northwest 406 467 30,000  Level Oakland Center
10:12PM 36.7314 -120.7944 319° Northwest 415 478 30,000  Level Oakland Center
10:13PM 36.8222 -120.8789 323° Northwest 414 476 30,000  Level Oakland Center
10:14PM 36.9083 -120.9719 319° Northwest 410 472 30,000  Level Oakland Center
10:15PM 36.9806 -121.0808 310° West 405 466 30,000 -300 Level Oakland Center
10:16PM 37.0636 -121.2097 309° West 405 466 29,400 -960 Descending Oakland Center
10:17PM 37.1239 -121.2992 310° West 405 466 28,100 -1,740 Descending Oakland Center
10:18PM 37.2083 -121.4258 310° West 395 455 25,900 -2,100 Descending Oakland Center
10:19PM 37.2758 -121.5308 309° West 387 445 23,900 -1,980 Descending Oakland Center
10:20PM 37.3419 -121.6297 310° West 370 426 21,900 -1,980 Descending Oakland Center
10:21PM 37.4167 -121.7333 312° West 341 392 19,600 -1,980 Descending Northern Cal TRACON
10:22PM 37.4667 -121.8333 302° West 325 374 17,700 -1,980 Descending Northern Cal TRACON
10:23PM 37.5333 -121.9167 315° West 315 362 15,700 -1,980 Descending Northern Cal TRACON
10:24PM 37.5833 -122.0000 307° West 309 356 13,800 -1,920 Descending Northern Cal TRACON
10:25PM 37.6667 -122.0333 342° North 303 349 11,900 -1,920 Descending Northern Cal TRACON
10:26PM 37.7500 -122.0667 342° North 303 349 10,000 -1,860 Descending Northern Cal TRACON
10:28PM 37.8883 -122.1300 340° North 282 325 6,500 -1,680 Descending Oakland Center
10:29PM 37.9558 -122.1622 339° North 268 308 5,100 -780 Descending Oakland Center
10:30PM 38.0139 -122.1883 340° North 234 269 5,000 -600 Descending Oakland Center
10:31PM 38.0708 -122.2128 341° North 221 254 4,000 -960 Descending Oakland Center
10:32PM 38.1292 -122.2122 360° North 211 243 3,100 -840 Descending Oakland Center
10:33PM 38.1825 -122.2167 356° North 197 227 2,400 -780 Descending Oakland Center
10:34PM 38.2294 -122.2258 351° North 160 184 1,600 -780 Descending Oakland Center
10:35PM 38.2539 -122.2536 318° Northwest 157 181 900 -720 Descending Oakland Center